sensor_id;sensor_type;location;lat;lon;timestamp;temperature;humidity
66506;HTU21D;53332;51.082;5.832;2023-06-24T00:01:25;21.46;110.65
66506;HTU21D;53332;51.082;5.832;2023-06-24T00:03:51;21.44;110.72
66506;HTU21D;53332;51.082;5.832;2023-06-24T00:06:19;21.42;110.79
66506;HTU21D;53332;51.082;5.832;2023-06-24T00:08:45;21.39;110.10
66506;HTU21D;53332;51.082;5.832;2023-06-24T00:11:11;21.33;110.11
66506;HTU21D;53332;51.082;5.832;2023-06-24T00:13:39;21.29;110.56
66506;HTU21D;53332;51.082;5.832;2023-06-24T00:16:05;21.27;110.47
66506;HTU21D;53332;51.082;5.832;2023-06-24T00:18:32;21.22;111.00
66506;HTU21D;53332;51.082;5.832;2023-06-24T00:20:58;21.21;111.11
66506;HTU21D;53332;51.082;5.832;2023-06-24T00:23:24;21.20;111.14
66506;HTU21D;53332;51.082;5.832;2023-06-24T00:25:53;21.18;111.39
66506;HTU21D;53332;51.082;5.832;2023-06-24T00:28:22;21.11;111.89
66506;HTU21D;53332;51.082;5.832;2023-06-24T00:30:49;21.00;113.63
66506;HTU21D;53332;51.082;5.832;2023-06-24T00:33:15;20.92;115.56
66506;HTU21D;53332;51.082;5.832;2023-06-24T00:35:42;20.91;116.37
66506;HTU21D;53332;51.082;5.832;2023-06-24T00:38:08;20.87;116.12
66506;HTU21D;53332;51.082;5.832;2023-06-24T00:40:34;20.78;117.24
66506;HTU21D;53332;51.082;5.832;2023-06-24T00:43:01;20.73;117.73
66506;HTU21D;53332;51.082;5.832;2023-06-24T00:45:27;20.64;118.17
66506;HTU21D;53332;51.082;5.832;2023-06-24T00:47:55;20.57;118.99
66506;HTU21D;53332;51.082;5.832;2023-06-24T00:50:22;20.53;118.99
66506;HTU21D;53332;51.082;5.832;2023-06-24T00:52:48;20.53;118.99
66506;HTU21D;53332;51.082;5.832;2023-06-24T00:55:16;20.51;118.99
66506;HTU21D;53332;51.082;5.832;2023-06-24T00:57:43;20.50;118.99
66506;HTU21D;53332;51.082;5.832;2023-06-24T01:00:10;20.48;118.99
66506;HTU21D;53332;51.082;5.832;2023-06-24T01:02:41;20.43;118.99
66506;HTU21D;53332;51.082;5.832;2023-06-24T01:05:09;20.36;118.99
66506;HTU21D;53332;51.082;5.832;2023-06-24T01:07:37;20.26;118.99
66506;HTU21D;53332;51.082;5.832;2023-06-24T01:10:04;20.27;118.99
66506;HTU21D;53332;51.082;5.832;2023-06-24T01:12:35;20.29;118.99
66506;HTU21D;53332;51.082;5.832;2023-06-24T01:15:03;20.28;118.99
66506;HTU21D;53332;51.082;5.832;2023-06-24T01:17:49;20.27;118.99
66506;HTU21D;53332;51.082;5.832;2023-06-24T01:20:27;20.26;118.99
66506;HTU21D;53332;51.082;5.832;2023-06-24T01:29:14;20.28;118.99
66506;HTU21D;53332;51.082;5.832;2023-06-24T01:31:50;20.26;118.99
66506;HTU21D;53332;51.082;5.832;2023-06-24T01:34:23;20.26;118.99
66506;HTU21D;53332;51.082;5.832;2023-06-24T01:37:00;20.24;118.99
66506;HTU21D;53332;51.082;5.832;2023-06-24T01:39:32;20.25;118.99
66506;HTU21D;53332;51.082;5.832;2023-06-24T01:42:06;20.24;118.99
66506;HTU21D;53332;51.082;5.832;2023-06-24T01:44:35;20.27;118.99
66506;HTU21D;53332;51.082;5.832;2023-06-24T01:47:06;20.31;118.99
66506;HTU21D;53332;51.082;5.832;2023-06-24T01:49:38;20.32;118.99
66506;HTU21D;53332;51.082;5.832;2023-06-24T01:52:08;20.33;118.99
66506;HTU21D;53332;51.082;5.832;2023-06-24T01:54:38;20.36;118.99
66506;HTU21D;53332;51.082;5.832;2023-06-24T01:57:08;20.41;118.99
66506;HTU21D;53332;51.082;5.832;2023-06-24T01:59:37;20.42;118.99
66506;HTU21D;53332;51.082;5.832;2023-06-24T02:02:05;20.39;118.99
66506;HTU21D;53332;51.082;5.832;2023-06-24T02:04:34;20.40;118.99
66506;HTU21D;53332;51.082;5.832;2023-06-24T02:07:01;20.42;118.99
66506;HTU21D;53332;51.082;5.832;2023-06-24T02:09:29;20.47;118.99
66506;HTU21D;53332;51.082;5.832;2023-06-24T02:12:01;20.49;118.99
66506;HTU21D;53332;51.082;5.832;2023-06-24T02:14:28;20.49;118.99
66506;HTU21D;53332;51.082;5.832;2023-06-24T02:16:57;20.51;118.99
66506;HTU21D;53332;51.082;5.832;2023-06-24T02:19:30;20.50;118.99
66506;HTU21D;53332;51.082;5.832;2023-06-24T02:21:59;20.49;118.99
66506;HTU21D;53332;51.082;5.832;2023-06-24T02:24:27;20.49;118.99
66506;HTU21D;53332;51.082;5.832;2023-06-24T02:26:56;20.47;118.99
66506;HTU21D;53332;51.082;5.832;2023-06-24T02:29:26;20.45;118.87
66506;HTU21D;53332;51.082;5.832;2023-06-24T02:31:53;20.48;117.38
66506;HTU21D;53332;51.082;5.832;2023-06-24T02:34:19;20.41;116.61
66506;HTU21D;53332;51.082;5.832;2023-06-24T02:36:45;20.37;116.36
66506;HTU21D;53332;51.082;5.832;2023-06-24T02:39:11;20.35;115.93
66506;HTU21D;53332;51.082;5.832;2023-06-24T02:41:36;20.31;115.22
66506;HTU21D;53332;51.082;5.832;2023-06-24T02:44:02;20.32;114.64
66506;HTU21D;53332;51.082;5.832;2023-06-24T02:46:29;20.30;113.97
66506;HTU21D;53332;51.082;5.832;2023-06-24T02:48:58;20.28;114.00
66506;HTU21D;53332;51.082;5.832;2023-06-24T02:51:25;20.27;113.74
66506;HTU21D;53332;51.082;5.832;2023-06-24T02:53:52;20.27;112.87
66506;HTU21D;53332;51.082;5.832;2023-06-24T02:56:19;20.24;111.74
66506;HTU21D;53332;51.082;5.832;2023-06-24T02:58:47;20.22;111.23
66506;HTU21D;53332;51.082;5.832;2023-06-24T03:01:14;20.21;110.33
66506;HTU21D;53332;51.082;5.832;2023-06-24T03:03:42;20.17;109.96
66506;HTU21D;53332;51.082;5.832;2023-06-24T03:06:07;20.13;109.68
66506;HTU21D;53332;51.082;5.832;2023-06-24T03:08:39;20.09;109.47
66506;HTU21D;53332;51.082;5.832;2023-06-24T03:11:04;20.06;108.78
66506;HTU21D;53332;51.082;5.832;2023-06-24T03:13:30;20.03;108.07
66506;HTU21D;53332;51.082;5.832;2023-06-24T03:15:55;20.02;107.81
66506;HTU21D;53332;51.082;5.832;2023-06-24T03:18:21;20.00;107.67
66506;HTU21D;53332;51.082;5.832;2023-06-24T03:20:46;19.97;106.98
66506;HTU21D;53332;51.082;5.832;2023-06-24T03:23:12;19.96;106.29
66506;HTU21D;53332;51.082;5.832;2023-06-24T03:25:38;19.92;105.53
66506;HTU21D;53332;51.082;5.832;2023-06-24T03:28:03;19.91;105.21
66506;HTU21D;53332;51.082;5.832;2023-06-24T03:30:32;19.92;104.44
66506;HTU21D;53332;51.082;5.832;2023-06-24T03:32:58;19.94;104.08
66506;HTU21D;53332;51.082;5.832;2023-06-24T03:35:24;19.92;103.88
66506;HTU21D;53332;51.082;5.832;2023-06-24T03:37:49;19.90;103.81
66506;HTU21D;53332;51.082;5.832;2023-06-24T03:40:15;19.88;103.92
66506;HTU21D;53332;51.082;5.832;2023-06-24T03:42:41;19.89;103.78
66506;HTU21D;53332;51.082;5.832;2023-06-24T03:45:06;19.88;103.48
66506;HTU21D;53332;51.082;5.832;2023-06-24T03:47:32;19.88;103.19
66506;HTU21D;53332;51.082;5.832;2023-06-24T03:49:58;19.89;102.85
66506;HTU21D;53332;51.082;5.832;2023-06-24T03:52:24;19.89;102.95
66506;HTU21D;53332;51.082;5.832;2023-06-24T03:54:50;19.91;102.76
66506;HTU21D;53332;51.082;5.832;2023-06-24T03:57:16;19.92;102.99
66506;HTU21D;53332;51.082;5.832;2023-06-24T03:59:42;19.92;103.07
66506;HTU21D;53332;51.082;5.832;2023-06-24T04:02:07;19.90;103.53
66506;HTU21D;53332;51.082;5.832;2023-06-24T04:04:36;19.89;103.61
66506;HTU21D;53332;51.082;5.832;2023-06-24T04:07:02;19.89;103.54
66506;HTU21D;53332;51.082;5.832;2023-06-24T04:09:29;19.88;103.49
66506;HTU21D;53332;51.082;5.832;2023-06-24T04:11:54;19.86;103.93
66506;HTU21D;53332;51.082;5.832;2023-06-24T04:14:20;19.87;104.58
66506;HTU21D;53332;51.082;5.832;2023-06-24T04:16:45;19.86;105.00
66506;HTU21D;53332;51.082;5.832;2023-06-24T04:19:11;19.87;105.19
66506;HTU21D;53332;51.082;5.832;2023-06-24T04:21:36;19.89;105.24
66506;HTU21D;53332;51.082;5.832;2023-06-24T04:24:03;19.94;105.50
66506;HTU21D;53332;51.082;5.832;2023-06-24T04:26:29;19.96;105.56
66506;HTU21D;53332;51.082;5.832;2023-06-24T04:28:54;19.97;106.24
66506;HTU21D;53332;51.082;5.832;2023-06-24T04:31:20;19.97;107.07
66506;HTU21D;53332;51.082;5.832;2023-06-24T04:33:45;20.02;107.71
66506;HTU21D;53332;51.082;5.832;2023-06-24T04:36:11;20.04;108.27
66506;HTU21D;53332;51.082;5.832;2023-06-24T04:38:36;20.07;108.32
66506;HTU21D;53332;51.082;5.832;2023-06-24T04:41:02;20.10;109.13
66506;HTU21D;53332;51.082;5.832;2023-06-24T04:43:27;20.14;109.68
66506;HTU21D;53332;51.082;5.832;2023-06-24T04:45:55;20.16;109.81
66506;HTU21D;53332;51.082;5.832;2023-06-24T04:48:26;20.20;110.35
66506;HTU21D;53332;51.082;5.832;2023-06-24T04:50:52;20.26;110.84
66506;HTU21D;53332;51.082;5.832;2023-06-24T04:53:20;20.31;111.37
66506;HTU21D;53332;51.082;5.832;2023-06-24T04:55:46;20.36;111.49
66506;HTU21D;53332;51.082;5.832;2023-06-24T04:58:11;20.40;111.13
66506;HTU21D;53332;51.082;5.832;2023-06-24T05:00:37;20.45;111.33
66506;HTU21D;53332;51.082;5.832;2023-06-24T05:03:02;20.50;111.16
66506;HTU21D;53332;51.082;5.832;2023-06-24T05:05:28;20.56;111.59
66506;HTU21D;53332;51.082;5.832;2023-06-24T05:07:53;20.61;111.34
66506;HTU21D;53332;51.082;5.832;2023-06-24T05:10:19;20.66;110.81
66506;HTU21D;53332;51.082;5.832;2023-06-24T05:12:44;20.70;110.51
66506;HTU21D;53332;51.082;5.832;2023-06-24T05:15:10;20.72;110.36
66506;HTU21D;53332;51.082;5.832;2023-06-24T05:17:36;20.74;110.36
66506;HTU21D;53332;51.082;5.832;2023-06-24T05:20:02;20.78;110.20
66506;HTU21D;53332;51.082;5.832;2023-06-24T05:22:28;20.83;110.35
66506;HTU21D;53332;51.082;5.832;2023-06-24T05:24:54;20.87;110.42
66506;HTU21D;53332;51.082;5.832;2023-06-24T05:27:20;20.92;110.30
66506;HTU21D;53332;51.082;5.832;2023-06-24T05:29:45;20.95;110.11
66506;HTU21D;53332;51.082;5.832;2023-06-24T05:32:11;21.00;110.10
66506;HTU21D;53332;51.082;5.832;2023-06-24T05:34:36;21.00;110.27
66506;HTU21D;53332;51.082;5.832;2023-06-24T05:37:02;21.03;110.96
66506;HTU21D;53332;51.082;5.832;2023-06-24T05:39:28;21.06;111.64
66506;HTU21D;53332;51.082;5.832;2023-06-24T05:41:53;21.13;112.08
66506;HTU21D;53332;51.082;5.832;2023-06-24T05:44:19;21.19;111.23
66506;HTU21D;53332;51.082;5.832;2023-06-24T05:46:45;21.23;110.87
66506;HTU21D;53332;51.082;5.832;2023-06-24T05:49:11;21.28;110.54
66506;HTU21D;53332;51.082;5.832;2023-06-24T05:51:37;21.31;110.34
66506;HTU21D;53332;51.082;5.832;2023-06-24T05:54:02;21.34;110.17
66506;HTU21D;53332;51.082;5.832;2023-06-24T05:56:28;21.37;109.68
66506;HTU21D;53332;51.082;5.832;2023-06-24T05:58:54;21.39;109.47
66506;HTU21D;53332;51.082;5.832;2023-06-24T06:01:20;21.43;109.07
66506;HTU21D;53332;51.082;5.832;2023-06-24T06:03:45;21.45;108.14
66506;HTU21D;53332;51.082;5.832;2023-06-24T06:06:11;21.46;107.42
66506;HTU21D;53332;51.082;5.832;2023-06-24T06:08:36;21.47;107.30
66506;HTU21D;53332;51.082;5.832;2023-06-24T06:11:02;21.50;107.24
66506;HTU21D;53332;51.082;5.832;2023-06-24T06:13:30;21.53;106.88
66506;HTU21D;53332;51.082;5.832;2023-06-24T06:15:57;21.55;106.97
66506;HTU21D;53332;51.082;5.832;2023-06-24T06:18:23;21.59;107.08
66506;HTU21D;53332;51.082;5.832;2023-06-24T06:20:48;21.61;105.58
66506;HTU21D;53332;51.082;5.832;2023-06-24T06:23:15;21.59;104.38
66506;HTU21D;53332;51.082;5.832;2023-06-24T06:25:41;21.61;103.90
66506;HTU21D;53332;51.082;5.832;2023-06-24T06:28:07;21.65;102.67
66506;HTU21D;53332;51.082;5.832;2023-06-24T06:30:32;21.68;101.51
66506;HTU21D;53332;51.082;5.832;2023-06-24T06:32:58;21.77;100.17
66506;HTU21D;53332;51.082;5.832;2023-06-24T06:35:23;21.81;100.29
66506;HTU21D;53332;51.082;5.832;2023-06-24T06:37:49;21.95;100.17
66506;HTU21D;53332;51.082;5.832;2023-06-24T06:40:19;22.06;98.93
66506;HTU21D;53332;51.082;5.832;2023-06-24T06:42:44;22.17;97.66
66506;HTU21D;53332;51.082;5.832;2023-06-24T06:45:10;22.26;96.43
66506;HTU21D;53332;51.082;5.832;2023-06-24T06:47:36;22.39;95.75
66506;HTU21D;53332;51.082;5.832;2023-06-24T06:50:01;22.62;95.04
66506;HTU21D;53332;51.082;5.832;2023-06-24T06:52:27;22.85;93.48
66506;HTU21D;53332;51.082;5.832;2023-06-24T06:54:55;23.02;92.31
66506;HTU21D;53332;51.082;5.832;2023-06-24T06:57:21;23.17;91.01
66506;HTU21D;53332;51.082;5.832;2023-06-24T06:59:46;23.34;90.21
66506;HTU21D;53332;51.082;5.832;2023-06-24T07:02:12;23.51;89.37
66506;HTU21D;53332;51.082;5.832;2023-06-24T07:04:37;23.71;88.63
66506;HTU21D;53332;51.082;5.832;2023-06-24T07:07:03;23.97;86.62
66506;HTU21D;53332;51.082;5.832;2023-06-24T07:09:29;24.30;84.39
66506;HTU21D;53332;51.082;5.832;2023-06-24T07:11:54;24.66;81.81
66506;HTU21D;53332;51.082;5.832;2023-06-24T07:14:19;24.94;78.98
66506;HTU21D;53332;51.082;5.832;2023-06-24T07:16:45;25.20;75.99
66506;HTU21D;53332;51.082;5.832;2023-06-24T07:19:11;25.44;72.61
66506;HTU21D;53332;51.082;5.832;2023-06-24T07:21:37;25.60;69.68
66506;HTU21D;53332;51.082;5.832;2023-06-24T07:24:03;25.79;67.82
66506;HTU21D;53332;51.082;5.832;2023-06-24T07:26:29;25.97;65.66
66506;HTU21D;53332;51.082;5.832;2023-06-24T07:28:57;26.21;63.67
66506;HTU21D;53332;51.082;5.832;2023-06-24T07:31:25;26.53;61.47
66506;HTU21D;53332;51.082;5.832;2023-06-24T07:33:51;26.84;59.94
66506;HTU21D;53332;51.082;5.832;2023-06-24T07:36:17;27.13;57.19
66506;HTU21D;53332;51.082;5.832;2023-06-24T07:38:42;27.50;56.48
66506;HTU21D;53332;51.082;5.832;2023-06-24T07:41:08;27.79;55.48
66506;HTU21D;53332;51.082;5.832;2023-06-24T07:43:33;28.00;54.04
66506;HTU21D;53332;51.082;5.832;2023-06-24T07:45:59;28.16;52.24
66506;HTU21D;53332;51.082;5.832;2023-06-24T07:48:24;28.40;51.54
66506;HTU21D;53332;51.082;5.832;2023-06-24T07:50:50;28.60;50.00
66506;HTU21D;53332;51.082;5.832;2023-06-24T07:53:16;28.83;49.31
66506;HTU21D;53332;51.082;5.832;2023-06-24T07:55:41;29.04;48.29
66506;HTU21D;53332;51.082;5.832;2023-06-24T07:58:07;29.12;47.69
66506;HTU21D;53332;51.082;5.832;2023-06-24T08:00:33;29.16;46.47
66506;HTU21D;53332;51.082;5.832;2023-06-24T08:02:59;29.11;45.70
66506;HTU21D;53332;51.082;5.832;2023-06-24T08:05:25;29.02;44.51
66506;HTU21D;53332;51.082;5.832;2023-06-24T08:07:51;28.86;44.12
66506;HTU21D;53332;51.082;5.832;2023-06-24T08:10:17;28.63;44.44
66506;HTU21D;53332;51.082;5.832;2023-06-24T08:12:43;28.34;44.53
66506;HTU21D;53332;51.082;5.832;2023-06-24T08:15:09;28.09;44.47
66506;HTU21D;53332;51.082;5.832;2023-06-24T08:17:34;27.90;43.58
66506;HTU21D;53332;51.082;5.832;2023-06-24T08:20:01;27.82;43.38
66506;HTU21D;53332;51.082;5.832;2023-06-24T08:22:27;27.79;43.10
66506;HTU21D;53332;51.082;5.832;2023-06-24T08:24:53;27.78;42.93
66506;HTU21D;53332;51.082;5.832;2023-06-24T08:27:18;27.78;43.08
66506;HTU21D;53332;51.082;5.832;2023-06-24T08:29:44;27.86;42.45
66506;HTU21D;53332;51.082;5.832;2023-06-24T08:32:09;28.02;41.59
66506;HTU21D;53332;51.082;5.832;2023-06-24T08:34:35;27.91;41.32
66506;HTU21D;53332;51.082;5.832;2023-06-24T08:37:00;27.81;41.68
66506;HTU21D;53332;51.082;5.832;2023-06-24T08:39:26;27.74;41.39
66506;HTU21D;53332;51.082;5.832;2023-06-24T08:41:52;27.76;41.26
66506;HTU21D;53332;51.082;5.832;2023-06-24T08:44:17;27.85;40.68
66506;HTU21D;53332;51.082;5.832;2023-06-24T08:46:43;28.01;40.35
66506;HTU21D;53332;51.082;5.832;2023-06-24T08:51:51;28.04;40.53
66506;HTU21D;53332;51.082;5.832;2023-06-24T08:54:20;27.82;40.20
66506;HTU21D;53332;51.082;5.832;2023-06-24T08:56:46;27.61;40.10
66506;HTU21D;53332;51.082;5.832;2023-06-24T08:59:11;27.63;40.33
66506;HTU21D;53332;51.082;5.832;2023-06-24T09:01:37;27.73;40.42
66506;HTU21D;53332;51.082;5.832;2023-06-24T09:04:04;27.74;40.23
66506;HTU21D;53332;51.082;5.832;2023-06-24T09:06:31;27.69;40.33
66506;HTU21D;53332;51.082;5.832;2023-06-24T09:08:57;27.67;39.31
66506;HTU21D;53332;51.082;5.832;2023-06-24T09:11:24;27.68;39.26
66506;HTU21D;53332;51.082;5.832;2023-06-24T09:13:57;27.58;39.70
66506;HTU21D;53332;51.082;5.832;2023-06-24T09:16:23;27.65;39.64
66506;HTU21D;53332;51.082;5.832;2023-06-24T09:18:49;27.71;39.34
66506;HTU21D;53332;51.082;5.832;2023-06-24T09:21:26;27.60;39.19
66506;HTU21D;53332;51.082;5.832;2023-06-24T09:23:56;27.61;39.43
66506;HTU21D;53332;51.082;5.832;2023-06-24T09:26:26;27.71;39.32
66506;HTU21D;53332;51.082;5.832;2023-06-24T09:28:53;27.68;38.46
66506;HTU21D;53332;51.082;5.832;2023-06-24T09:31:19;27.69;38.08
66506;HTU21D;53332;51.082;5.832;2023-06-24T09:33:46;27.79;37.32
66506;HTU21D;53332;51.082;5.832;2023-06-24T09:36:15;27.89;36.87
66506;HTU21D;53332;51.082;5.832;2023-06-24T09:38:44;27.93;37.01
66506;HTU21D;53332;51.082;5.832;2023-06-24T09:41:10;27.87;36.27
66506;HTU21D;53332;51.082;5.832;2023-06-24T09:43:37;27.80;36.03
66506;HTU21D;53332;51.082;5.832;2023-06-24T09:46:06;27.80;36.61
66506;HTU21D;53332;51.082;5.832;2023-06-24T09:48:33;27.86;37.05
66506;HTU21D;53332;51.082;5.832;2023-06-24T09:51:03;27.95;36.46
66506;HTU21D;53332;51.082;5.832;2023-06-24T09:53:31;28.12;36.07
66506;HTU21D;53332;51.082;5.832;2023-06-24T09:55:59;28.26;36.18
66506;HTU21D;53332;51.082;5.832;2023-06-24T09:58:25;28.35;36.43
66506;HTU21D;53332;51.082;5.832;2023-06-24T10:00:52;28.37;35.83
66506;HTU21D;53332;51.082;5.832;2023-06-24T10:03:20;28.31;35.34
66506;HTU21D;53332;51.082;5.832;2023-06-24T10:05:45;28.31;34.28
66506;HTU21D;53332;51.082;5.832;2023-06-24T10:08:13;28.31;35.34
66506;HTU21D;53332;51.082;5.832;2023-06-24T10:10:39;28.42;36.05
66506;HTU21D;53332;51.082;5.832;2023-06-24T10:13:04;28.43;34.80
66506;HTU21D;53332;51.082;5.832;2023-06-24T10:15:31;28.38;34.69
66506;HTU21D;53332;51.082;5.832;2023-06-24T10:18:01;28.29;34.31
66506;HTU21D;53332;51.082;5.832;2023-06-24T10:20:28;28.27;34.05
66506;HTU21D;53332;51.082;5.832;2023-06-24T10:22:53;28.30;33.93
66506;HTU21D;53332;51.082;5.832;2023-06-24T10:25:19;28.38;33.99
66506;HTU21D;53332;51.082;5.832;2023-06-24T10:27:53;28.52;34.25
66506;HTU21D;53332;51.082;5.832;2023-06-24T10:30:20;28.56;33.70
66506;HTU21D;53332;51.082;5.832;2023-06-24T10:32:52;28.59;33.59
66506;HTU21D;53332;51.082;5.832;2023-06-24T10:35:28;28.49;33.66
66506;HTU21D;53332;51.082;5.832;2023-06-24T10:37:59;28.54;33.69
66506;HTU21D;53332;51.082;5.832;2023-06-24T10:45:55;28.68;33.47
66506;HTU21D;53332;51.082;5.832;2023-06-24T10:48:21;28.69;32.25
66506;HTU21D;53332;51.082;5.832;2023-06-24T10:50:48;28.68;32.71
66506;HTU21D;53332;51.082;5.832;2023-06-24T10:53:15;28.69;33.33
66506;HTU21D;53332;51.082;5.832;2023-06-24T10:55:41;28.74;33.62
66506;HTU21D;53332;51.082;5.832;2023-06-24T10:58:12;28.87;33.69
66506;HTU21D;53332;51.082;5.832;2023-06-24T11:00:39;28.92;33.22
66506;HTU21D;53332;51.082;5.832;2023-06-24T11:03:12;28.91;33.08
66506;HTU21D;53332;51.082;5.832;2023-06-24T11:05:42;28.86;32.33
66506;HTU21D;53332;51.082;5.832;2023-06-24T11:08:09;28.80;31.22
66506;HTU21D;53332;51.082;5.832;2023-06-24T11:10:48;28.82;31.25
66506;HTU21D;53332;51.082;5.832;2023-06-24T11:13:14;28.86;31.52
66506;HTU21D;53332;51.082;5.832;2023-06-24T11:15:40;28.89;31.64
66506;HTU21D;53332;51.082;5.832;2023-06-24T11:18:12;28.90;31.96
66506;HTU21D;53332;51.082;5.832;2023-06-24T11:20:38;28.85;31.34
66506;HTU21D;53332;51.082;5.832;2023-06-24T11:23:07;28.76;31.83
66506;HTU21D;53332;51.082;5.832;2023-06-24T11:25:41;28.82;32.65
66506;HTU21D;53332;51.082;5.832;2023-06-24T11:28:33;29.00;32.93
66506;HTU21D;53332;51.082;5.832;2023-06-24T11:31:06;29.15;31.86
66506;HTU21D;53332;51.082;5.832;2023-06-24T11:33:32;29.32;32.38
66506;HTU21D;53332;51.082;5.832;2023-06-24T11:35:58;29.46;32.48
66506;HTU21D;53332;51.082;5.832;2023-06-24T11:38:23;29.59;31.27
66506;HTU21D;53332;51.082;5.832;2023-06-24T11:40:49;29.65;31.56
66506;HTU21D;53332;51.082;5.832;2023-06-24T11:43:15;29.62;31.22
66506;HTU21D;53332;51.082;5.832;2023-06-24T11:45:40;29.59;31.68
66506;HTU21D;53332;51.082;5.832;2023-06-24T11:48:06;29.56;31.59
66506;HTU21D;53332;51.082;5.832;2023-06-24T11:50:35;29.51;31.77
66506;HTU21D;53332;51.082;5.832;2023-06-24T11:53:01;29.50;32.06
66506;HTU21D;53332;51.082;5.832;2023-06-24T11:55:27;29.61;31.41
66506;HTU21D;53332;51.082;5.832;2023-06-24T11:58:03;29.76;30.91
66506;HTU21D;53332;51.082;5.832;2023-06-24T12:00:38;29.79;30.52
66506;HTU21D;53332;51.082;5.832;2023-06-24T12:03:07;29.73;30.16
66506;HTU21D;53332;51.082;5.832;2023-06-24T12:05:35;29.63;29.95
66506;HTU21D;53332;51.082;5.832;2023-06-24T12:08:06;29.61;29.50
66506;HTU21D;53332;51.082;5.832;2023-06-24T12:10:33;29.61;29.77
66506;HTU21D;53332;51.082;5.832;2023-06-24T12:13:01;29.64;29.23
66506;HTU21D;53332;51.082;5.832;2023-06-24T12:15:27;29.65;28.42
66506;HTU21D;53332;51.082;5.832;2023-06-24T12:17:54;29.68;28.40
66506;HTU21D;53332;51.082;5.832;2023-06-24T12:20:20;29.61;28.99
66506;HTU21D;53332;51.082;5.832;2023-06-24T12:22:49;29.57;29.25
66506;HTU21D;53332;51.082;5.832;2023-06-24T12:25:15;29.62;29.57
66506;HTU21D;53332;51.082;5.832;2023-06-24T12:27:42;29.77;30.49
66506;HTU21D;53332;51.082;5.832;2023-06-24T12:30:09;29.85;30.00
66506;HTU21D;53332;51.082;5.832;2023-06-24T12:32:35;30.03;30.25
66506;HTU21D;53332;51.082;5.832;2023-06-24T12:35:00;30.12;30.67
66506;HTU21D;53332;51.082;5.832;2023-06-24T12:37:31;30.17;29.89
66506;HTU21D;53332;51.082;5.832;2023-06-24T12:39:58;30.17;28.73
66506;HTU21D;53332;51.082;5.832;2023-06-24T12:42:25;30.08;28.42
66506;HTU21D;53332;51.082;5.832;2023-06-24T12:44:51;30.08;29.22
66506;HTU21D;53332;51.082;5.832;2023-06-24T12:47:16;30.10;28.86
66506;HTU21D;53332;51.082;5.832;2023-06-24T12:49:41;30.08;29.29
66506;HTU21D;53332;51.082;5.832;2023-06-24T12:52:07;30.01;29.02
66506;HTU21D;53332;51.082;5.832;2023-06-24T12:54:33;30.00;29.37
66506;HTU21D;53332;51.082;5.832;2023-06-24T12:56:58;30.02;29.61
66506;HTU21D;53332;51.082;5.832;2023-06-24T12:59:24;30.04;29.83
66506;HTU21D;53332;51.082;5.832;2023-06-24T13:01:49;30.03;29.69
66506;HTU21D;53332;51.082;5.832;2023-06-24T13:04:15;30.01;30.14
66506;HTU21D;53332;51.082;5.832;2023-06-24T13:06:43;29.97;29.92
66506;HTU21D;53332;51.082;5.832;2023-06-24T13:09:08;29.93;29.33
66506;HTU21D;53332;51.082;5.832;2023-06-24T13:11:34;29.91;29.37
66506;HTU21D;53332;51.082;5.832;2023-06-24T13:13:59;29.86;29.68
66506;HTU21D;53332;51.082;5.832;2023-06-24T13:16:25;29.82;28.39
66506;HTU21D;53332;51.082;5.832;2023-06-24T13:18:50;29.77;28.47
66506;HTU21D;53332;51.082;5.832;2023-06-24T13:21:16;29.87;29.55
66506;HTU21D;53332;51.082;5.832;2023-06-24T13:23:41;29.96;29.31
66506;HTU21D;53332;51.082;5.832;2023-06-24T13:26:07;30.02;29.44
66506;HTU21D;53332;51.082;5.832;2023-06-24T13:28:33;30.11;28.84
66506;HTU21D;53332;51.082;5.832;2023-06-24T13:30:58;30.22;29.28
66506;HTU21D;53332;51.082;5.832;2023-06-24T13:33:24;30.30;29.29
66506;HTU21D;53332;51.082;5.832;2023-06-24T13:35:51;30.31;28.74
66506;HTU21D;53332;51.082;5.832;2023-06-24T13:38:16;30.25;28.90
66506;HTU21D;53332;51.082;5.832;2023-06-24T13:40:42;30.20;29.55
66506;HTU21D;53332;51.082;5.832;2023-06-24T13:43:08;30.18;28.58
66506;HTU21D;53332;51.082;5.832;2023-06-24T13:45:33;30.21;28.57
66506;HTU21D;53332;51.082;5.832;2023-06-24T13:47:59;30.25;29.28
66506;HTU21D;53332;51.082;5.832;2023-06-24T13:50:24;30.31;29.24
66506;HTU21D;53332;51.082;5.832;2023-06-24T13:52:50;30.30;29.10
66506;HTU21D;53332;51.082;5.832;2023-06-24T13:55:15;30.36;29.00
66506;HTU21D;53332;51.082;5.832;2023-06-24T13:57:41;30.51;28.48
66506;HTU21D;53332;51.082;5.832;2023-06-24T14:00:07;30.55;29.36
66506;HTU21D;53332;51.082;5.832;2023-06-24T14:02:34;30.54;29.33
66506;HTU21D;53332;51.082;5.832;2023-06-24T14:05:00;30.52;28.71
66506;HTU21D;53332;51.082;5.832;2023-06-24T14:07:25;30.61;28.98
66506;HTU21D;53332;51.082;5.832;2023-06-24T14:09:51;30.68;28.80
66506;HTU21D;53332;51.082;5.832;2023-06-24T14:12:16;30.74;28.36
66506;HTU21D;53332;51.082;5.832;2023-06-24T14:14:42;30.77;28.91
66506;HTU21D;53332;51.082;5.832;2023-06-24T14:17:08;30.85;28.62
66506;HTU21D;53332;51.082;5.832;2023-06-24T14:19:35;31.02;29.38
66506;HTU21D;53332;51.082;5.832;2023-06-24T14:22:01;31.18;29.43
66506;HTU21D;53332;51.082;5.832;2023-06-24T14:24:26;31.20;28.52
66506;HTU21D;53332;51.082;5.832;2023-06-24T14:26:52;31.28;28.23
66506;HTU21D;53332;51.082;5.832;2023-06-24T14:29:17;31.31;27.99
66506;HTU21D;53332;51.082;5.832;2023-06-24T14:31:43;31.22;28.02
66506;HTU21D;53332;51.082;5.832;2023-06-24T14:34:09;31.11;28.57
66506;HTU21D;53332;51.082;5.832;2023-06-24T14:36:34;31.09;29.25
66506;HTU21D;53332;51.082;5.832;2023-06-24T14:39:00;31.16;29.84
66506;HTU21D;53332;51.082;5.832;2023-06-24T14:41:25;31.22;30.65
66506;HTU21D;53332;51.082;5.832;2023-06-24T14:43:51;31.28;30.18
66506;HTU21D;53332;51.082;5.832;2023-06-24T14:46:17;31.31;29.32
66506;HTU21D;53332;51.082;5.832;2023-06-24T14:48:42;31.37;29.57
66506;HTU21D;53332;51.082;5.832;2023-06-24T14:51:08;31.33;28.84
66506;HTU21D;53332;51.082;5.832;2023-06-24T14:53:33;31.35;29.64
66506;HTU21D;53332;51.082;5.832;2023-06-24T14:55:59;31.34;29.81
66506;HTU21D;53332;51.082;5.832;2023-06-24T14:58:25;31.36;30.31
66506;HTU21D;53332;51.082;5.832;2023-06-24T15:00:50;31.38;30.42
66506;HTU21D;53332;51.082;5.832;2023-06-24T15:03:16;31.43;29.81
66506;HTU21D;53332;51.082;5.832;2023-06-24T15:05:41;31.26;28.93
66506;HTU21D;53332;51.082;5.832;2023-06-24T15:08:07;31.09;29.10
66506;HTU21D;53332;51.082;5.832;2023-06-24T15:10:32;31.09;29.32
66506;HTU21D;53332;51.082;5.832;2023-06-24T15:12:58;31.13;30.10
66506;HTU21D;53332;51.082;5.832;2023-06-24T15:15:23;31.12;30.14
66506;HTU21D;53332;51.082;5.832;2023-06-24T15:17:49;31.07;29.89
66506;HTU21D;53332;51.082;5.832;2023-06-24T15:20:14;31.06;30.45
66506;HTU21D;53332;51.082;5.832;2023-06-24T15:22:41;31.04;29.23